Time;durP1;ratioP1;P1;durP2;ratioP2;P2;SDS_P1;SDS_P2;PMS_P1;PMS_P2;Temp;Humidity;BMP_temperature;BMP_pressure;BME280_temperature;BME280_humidity;BME280_pressure;Samples;Min_cycle;Max_cycle;Signal;HPM_P1;HPM_P2
2021/10/20 00:01:35;;;;;;;24.23;15.40;;;;;;;;;;5102509;28;20044;-71
2021/10/20 00:04:02;;;;;;;28.65;16.98;;;;;;;;;;5097956;28;20416;-71
2021/10/20 00:06:28;;;;;;;25.05;16.27;;;;;;;;;;5099956;28;20043;-71
2021/10/20 00:08:54;;;;;;;31.67;16.15;;;;;;;;;;5098845;28;20050;-71
2021/10/20 00:11:20;;;;;;;21.10;15.27;;;;;;;;;;5095942;28;20052;-71
2021/10/20 00:13:47;;;;;;;20.88;15.75;;;;;;;;;;5099160;28;20071;-71
2021/10/20 00:16:13;;;;;;;22.50;14.45;;;;;;;;;;5093867;28;20044;-71
2021/10/20 00:18:45;;;;;;;20.70;14.93;;;;;;;;;;5103425;28;20087;-71
2021/10/20 00:21:11;;;;;;;22.10;15.68;;;;;;;;;;5101234;28;20047;-70
2021/10/20 00:23:37;;;;;;;23.95;15.73;;;;;;;;;;5100022;28;20056;-71
2021/10/20 00:26:03;;;;;;;22.35;14.93;;;;;;;;;;5091697;28;20032;-71
2021/10/20 00:28:29;;;;;;;20.13;14.07;;;;;;;;;;5096834;28;20096;-71
2021/10/20 00:30:55;;;;;;;25.38;16.30;;;;;;;;;;5104512;28;20127;-71
2021/10/20 00:33:21;;;;;;;22.13;14.60;;;;;;;;;;5099164;28;20067;-71
2021/10/20 00:35:48;;;;;;;20.85;15.00;;;;;;;;;;5101107;28;20093;-71
2021/10/20 00:38:14;;;;;;;20.75;15.30;;;;;;;;;;5098281;28;20047;-71
2021/10/20 00:40:40;;;;;;;22.55;14.75;;;;;;;;;;5086575;28;20041;-71
2021/10/20 00:43:06;;;;;;;24.83;13.85;;;;;;;;;;5094284;28;20040;-71
2021/10/20 00:45:32;;;;;;;21.25;14.70;;;;;;;;;;5101904;28;20044;-71
2021/10/20 00:47:58;;;;;;;22.30;15.02;;;;;;;;;;5095295;28;20070;-70
2021/10/20 00:50:24;;;;;;;23.02;13.60;;;;;;;;;;5101355;28;20044;-71
2021/10/20 00:52:51;;;;;;;21.67;13.77;;;;;;;;;;5094242;28;20083;-71
2021/10/20 00:55:17;;;;;;;19.13;13.30;;;;;;;;;;5101624;28;20051;-70
2021/10/20 00:57:46;;;;;;;18.80;12.30;;;;;;;;;;5094210;28;20040;-71
2021/10/20 01:00:12;;;;;;;22.60;14.55;;;;;;;;;;5100610;28;20103;-71
2021/10/20 01:02:40;;;;;;;20.95;14.52;;;;;;;;;;5094442;28;20048;-70
2021/10/20 01:05:06;;;;;;;18.77;13.40;;;;;;;;;;5099960;28;20119;-71
2021/10/20 01:07:32;;;;;;;22.95;13.95;;;;;;;;;;5095264;28;20105;-71
2021/10/20 01:09:59;;;;;;;17.58;13.57;;;;;;;;;;5100574;28;20073;-69
2021/10/20 01:12:25;;;;;;;18.90;13.80;;;;;;;;;;5096508;28;20131;-71
2021/10/20 01:14:51;;;;;;;21.50;13.48;;;;;;;;;;5096317;28;20086;-70
2021/10/20 01:17:18;;;;;;;17.40;13.85;;;;;;;;;;5098295;28;20096;-71
2021/10/20 01:19:44;;;;;;;23.27;12.52;;;;;;;;;;5093181;28;20120;-71
2021/10/20 01:22:11;;;;;;;18.02;12.60;;;;;;;;;;5092235;28;20052;-71
2021/10/20 01:24:37;;;;;;;15.98;11.55;;;;;;;;;;5093128;28;20169;-71
2021/10/20 01:27:03;;;;;;;19.63;11.90;;;;;;;;;;5099693;28;20044;-71
2021/10/20 01:29:29;;;;;;;18.55;11.65;;;;;;;;;;5093518;28;20127;-70
2021/10/20 01:31:57;;;;;;;16.40;12.10;;;;;;;;;;5100349;28;20048;-71
2021/10/20 01:34:23;;;;;;;14.57;11.35;;;;;;;;;;5097009;28;20036;-71
2021/10/20 01:36:50;;;;;;;15.10;10.85;;;;;;;;;;5098726;28;20127;-71
2021/10/20 01:39:17;;;;;;;13.63;11.68;;;;;;;;;;5095271;28;20041;-71
2021/10/20 01:41:43;;;;;;;14.70;10.67;;;;;;;;;;5101140;28;20040;-71
2021/10/20 01:44:09;;;;;;;13.02;9.82;;;;;;;;;;5100072;28;20499;-70
2021/10/20 01:46:35;;;;;;;15.20;10.93;;;;;;;;;;5102236;28;20050;-71
2021/10/20 01:49:02;;;;;;;15.95;11.25;;;;;;;;;;5095101;28;20126;-71
2021/10/20 01:51:28;;;;;;;16.10;10.65;;;;;;;;;;5098908;28;20040;-71
2021/10/20 01:53:54;;;;;;;13.82;10.15;;;;;;;;;;5098893;28;20060;-71
2021/10/20 01:56:21;;;;;;;13.55;8.43;;;;;;;;;;5105852;28;20044;-71
2021/10/20 01:58:47;;;;;;;14.73;10.82;;;;;;;;;;5104973;28;20072;-71
2021/10/20 02:01:14;;;;;;;12.05;9.50;;;;;;;;;;5102787;28;20446;-71
2021/10/20 02:03:40;;;;;;;19.20;11.57;;;;;;;;;;5103917;28;20131;-69
2021/10/20 02:06:11;;;;;;;12.00;9.60;;;;;;;;;;5102922;28;20055;-71
2021/10/20 02:08:37;;;;;;;14.07;9.93;;;;;;;;;;5103914;28;20119;-71
2021/10/20 02:11:04;;;;;;;17.08;10.52;;;;;;;;;;5102121;28;20040;-71
2021/10/20 02:13:30;;;;;;;16.02;10.20;;;;;;;;;;5101236;28;20235;-70
2021/10/20 02:15:56;;;;;;;15.55;9.95;;;;;;;;;;5104047;28;20052;-72
2021/10/20 02:18:22;;;;;;;10.55;8.65;;;;;;;;;;5099909;28;20087;-71
2021/10/20 02:20:51;;;;;;;16.60;10.00;;;;;;;;;;5099820;28;20078;-71
2021/10/20 02:23:18;;;;;;;13.77;9.52;;;;;;;;;;5097573;28;20048;-72
2021/10/20 02:25:44;;;;;;;13.52;9.13;;;;;;;;;;5087869;28;20068;-71
2021/10/20 02:28:10;;;;;;;16.63;9.70;;;;;;;;;;5103775;28;20111;-72
2021/10/20 02:30:36;;;;;;;12.63;9.20;;;;;;;;;;5088860;28;20100;-72
2021/10/20 02:33:02;;;;;;;13.98;9.60;;;;;;;;;;5094558;28;20045;-72
2021/10/20 02:35:28;;;;;;;11.50;9.57;;;;;;;;;;5087307;28;20082;-71
2021/10/20 02:37:56;;;;;;;14.73;9.98;;;;;;;;;;5097569;28;20044;-71
2021/10/20 02:40:22;;;;;;;15.90;9.77;;;;;;;;;;5100993;28;20036;-70
2021/10/20 02:42:48;;;;;;;12.82;9.18;;;;;;;;;;5095206;28;20047;-71
2021/10/20 02:45:15;;;;;;;11.85;8.88;;;;;;;;;;5102966;28;20032;-71
2021/10/20 02:47:42;;;;;;;11.02;8.57;;;;;;;;;;5089071;28;20044;-71
2021/10/20 02:50:08;;;;;;;12.27;9.45;;;;;;;;;;5085932;28;20049;-71
2021/10/20 02:52:35;;;;;;;13.63;9.65;;;;;;;;;;5093567;28;20052;-71
2021/10/20 02:55:01;;;;;;;13.45;8.95;;;;;;;;;;5101386;28;20055;-70
2021/10/20 02:57:27;;;;;;;12.27;8.68;;;;;;;;;;5095116;28;20045;-71
2021/10/20 02:59:53;;;;;;;18.80;9.20;;;;;;;;;;5100832;28;20032;-71
2021/10/20 03:02:19;;;;;;;15.45;9.10;;;;;;;;;;5090754;28;20048;-71
2021/10/20 03:04:46;;;;;;;14.20;9.52;;;;;;;;;;5093825;28;20032;-71
2021/10/20 03:07:12;;;;;;;15.52;10.82;;;;;;;;;;5098282;28;20044;-71
2021/10/20 03:09:38;;;;;;;11.23;8.23;;;;;;;;;;5091059;28;20076;-71
2021/10/20 03:12:04;;;;;;;16.83;9.63;;;;;;;;;;5090672;28;20050;-71
2021/10/20 03:14:31;;;;;;;12.23;9.25;;;;;;;;;;5087722;28;20047;-72
2021/10/20 03:16:57;;;;;;;13.40;9.43;;;;;;;;;;5096375;28;20047;-72
2021/10/20 03:19:23;;;;;;;13.82;9.55;;;;;;;;;;5094768;28;20055;-71
2021/10/20 03:21:49;;;;;;;17.75;10.40;;;;;;;;;;5085222;28;20047;-71
2021/10/20 03:24:15;;;;;;;14.48;9.02;;;;;;;;;;5086237;28;20511;-71
2021/10/20 03:26:41;;;;;;;14.07;9.35;;;;;;;;;;5087422;28;20055;-71
2021/10/20 03:29:07;;;;;;;11.82;9.48;;;;;;;;;;5085651;28;20075;-71
2021/10/20 03:31:33;;;;;;;10.18;7.95;;;;;;;;;;5102270;28;20036;-71
2021/10/20 03:33:59;;;;;;;13.65;9.35;;;;;;;;;;5085036;28;20089;-70
2021/10/20 03:36:26;;;;;;;11.45;9.88;;;;;;;;;;5100877;28;20047;-71
2021/10/20 03:38:52;;;;;;;14.75;9.25;;;;;;;;;;5085609;28;20541;-71
2021/10/20 03:41:18;;;;;;;16.85;9.55;;;;;;;;;;5089386;28;20052;-71
2021/10/20 03:43:44;;;;;;;15.60;10.27;;;;;;;;;;5089770;28;20040;-71
2021/10/20 03:46:10;;;;;;;13.02;10.35;;;;;;;;;;5111218;28;20038;-71
2021/10/20 03:48:36;;;;;;;15.65;10.73;;;;;;;;;;5094101;28;20036;-71
2021/10/20 03:51:03;;;;;;;15.93;10.52;;;;;;;;;;5090275;28;20098;-71
2021/10/20 03:53:29;;;;;;;13.30;9.25;;;;;;;;;;5090063;28;20074;-71
2021/10/20 03:55:55;;;;;;;16.83;10.82;;;;;;;;;;5084637;28;20101;-71
2021/10/20 03:58:22;;;;;;;11.73;9.88;;;;;;;;;;5091459;28;20048;-71
2021/10/20 04:00:49;;;;;;;14.32;10.57;;;;;;;;;;5089368;28;20041;-71
2021/10/20 04:03:15;;;;;;;17.25;11.18;;;;;;;;;;5097594;28;20070;-71
2021/10/20 04:05:41;;;;;;;18.08;9.77;;;;;;;;;;5095830;28;20127;-71
2021/10/20 04:08:07;;;;;;;14.05;10.02;;;;;;;;;;5099608;28;20036;-71
2021/10/20 04:10:33;;;;;;;14.77;9.65;;;;;;;;;;5096686;28;20040;-71
2021/10/20 04:12:59;;;;;;;17.70;11.23;;;;;;;;;;5097332;28;20075;-71
2021/10/20 04:15:26;;;;;;;16.95;10.52;;;;;;;;;;5103250;28;20114;-71
2021/10/20 04:17:53;;;;;;;13.27;10.60;;;;;;;;;;5102751;28;20036;-71
2021/10/20 04:20:20;;;;;;;17.13;9.90;;;;;;;;;;5101333;28;21794;-71
2021/10/20 04:22:48;;;;;;;15.25;10.18;;;;;;;;;;5090862;28;20044;-71
2021/10/20 04:25:14;;;;;;;14.57;10.10;;;;;;;;;;5085040;28;20044;-70
2021/10/20 04:27:41;;;;;;;15.52;10.40;;;;;;;;;;5092744;28;20568;-71
2021/10/20 04:30:08;;;;;;;17.65;11.13;;;;;;;;;;5094287;28;20067;-71
2021/10/20 04:32:34;;;;;;;13.52;10.00;;;;;;;;;;5089069;28;20051;-70
2021/10/20 04:35:00;;;;;;;13.93;10.70;;;;;;;;;;5099555;28;20071;-71
2021/10/20 04:37:29;;;;;;;16.27;11.02;;;;;;;;;;5098816;28;20050;-71
2021/10/20 04:39:59;;;;;;;17.35;12.88;;;;;;;;;;5098947;28;20071;-71
2021/10/20 04:42:26;;;;;;;18.05;12.07;;;;;;;;;;5091571;28;20166;-71
2021/10/20 04:44:53;;;;;;;15.63;11.45;;;;;;;;;;5098355;28;20071;-71
2021/10/20 04:47:19;;;;;;;16.08;11.07;;;;;;;;;;5097004;28;20036;-71
2021/10/20 04:49:46;;;;;;;18.13;11.30;;;;;;;;;;5098620;28;20040;-71
2021/10/20 04:52:12;;;;;;;16.77;10.40;;;;;;;;;;5090749;28;20127;-72
2021/10/20 04:54:38;;;;;;;20.40;11.13;;;;;;;;;;5097130;28;20060;-71
2021/10/20 04:57:04;;;;;;;17.15;10.60;;;;;;;;;;5090658;28;20052;-71
2021/10/20 04:59:34;;;;;;;14.70;10.55;;;;;;;;;;5097338;28;20048;-71
2021/10/20 05:02:01;;;;;;;17.10;11.18;;;;;;;;;;5098694;28;20048;-71
2021/10/20 05:04:27;;;;;;;17.48;10.90;;;;;;;;;;5097653;28;20096;-71
2021/10/20 05:06:53;;;;;;;15.05;11.35;;;;;;;;;;5091535;28;20136;-71
2021/10/20 05:09:19;;;;;;;15.45;10.85;;;;;;;;;;5070974;28;20066;-72
2021/10/20 05:11:45;;;;;;;20.17;11.77;;;;;;;;;;5097923;28;20044;-71
2021/10/20 05:14:12;;;;;;;18.42;11.60;;;;;;;;;;5100226;28;20046;-71
2021/10/20 05:16:38;;;;;;;18.80;11.45;;;;;;;;;;5099142;28;20135;-71
2021/10/20 05:19:04;;;;;;;17.88;9.63;;;;;;;;;;5094751;28;20094;-71
2021/10/20 05:21:30;;;;;;;15.68;10.65;;;;;;;;;;5101225;28;20040;-71
2021/10/20 05:23:56;;;;;;;19.17;10.98;;;;;;;;;;5104579;28;20040;-72
2021/10/20 05:26:22;;;;;;;14.45;10.20;;;;;;;;;;5102755;28;20503;-71
2021/10/20 05:28:48;;;;;;;16.20;11.45;;;;;;;;;;5102778;28;20048;-71
2021/10/20 05:31:15;;;;;;;22.60;11.45;;;;;;;;;;5091201;28;20127;-72
2021/10/20 05:33:41;;;;;;;14.10;11.05;;;;;;;;;;5104258;28;20170;-72
2021/10/20 05:36:10;;;;;;;19.60;11.77;;;;;;;;;;5096914;28;20122;-72
2021/10/20 05:38:36;;;;;;;15.10;11.02;;;;;;;;;;5104430;28;20071;-72
2021/10/20 05:41:03;;;;;;;20.90;12.38;;;;;;;;;;5105821;28;20044;-72
2021/10/20 05:43:32;;;;;;;21.73;11.05;;;;;;;;;;5103361;28;20051;-71
2021/10/20 05:45:58;;;;;;;23.48;12.50;;;;;;;;;;5096296;28;20067;-72
2021/10/20 05:48:24;;;;;;;19.33;11.98;;;;;;;;;;5102520;28;20209;-72
2021/10/20 05:50:50;;;;;;;20.10;12.75;;;;;;;;;;5088230;28;20040;-72
2021/10/20 05:53:16;;;;;;;23.33;14.00;;;;;;;;;;5102045;28;20052;-71
2021/10/20 05:55:43;;;;;;;18.42;11.60;;;;;;;;;;5094210;28;20044;-72
2021/10/20 05:58:10;;;;;;;15.30;12.20;;;;;;;;;;5101730;28;20119;-71
2021/10/20 06:00:36;;;;;;;15.27;10.63;;;;;;;;;;5094957;28;20040;-72
2021/10/20 06:03:02;;;;;;;20.33;11.52;;;;;;;;;;5101718;28;20063;-72
2021/10/20 06:05:28;;;;;;;20.60;12.68;;;;;;;;;;5094312;28;20037;-72
2021/10/20 06:07:54;;;;;;;20.20;12.27;;;;;;;;;;5100856;28;20051;-72
2021/10/20 06:10:20;;;;;;;23.17;11.73;;;;;;;;;;5093403;28;20045;-72
2021/10/20 06:12:47;;;;;;;19.10;12.88;;;;;;;;;;5100684;28;20043;-72
2021/10/20 06:15:13;;;;;;;19.13;12.23;;;;;;;;;;5105235;28;20071;-73
2021/10/20 06:17:39;;;;;;;20.05;13.77;;;;;;;;;;5082219;28;20502;-72
2021/10/20 06:20:06;;;;;;;22.35;12.88;;;;;;;;;;5097126;28;20036;-72
2021/10/20 06:22:33;;;;;;;20.42;13.13;;;;;;;;;;5098516;28;20041;-72
2021/10/20 06:24:59;;;;;;;25.48;14.45;;;;;;;;;;5101086;28;20036;-72
2021/10/20 06:27:26;;;;;;;22.33;14.23;;;;;;;;;;5100221;28;20049;-73
2021/10/20 06:29:52;;;;;;;20.52;13.20;;;;;;;;;;5099814;28;20119;-73
2021/10/20 06:32:19;;;;;;;18.20;12.85;;;;;;;;;;5101939;28;20051;-72
2021/10/20 06:34:45;;;;;;;20.35;13.43;;;;;;;;;;5086749;28;20040;-72
2021/10/20 06:37:11;;;;;;;21.95;12.82;;;;;;;;;;5103108;28;20056;-72
2021/10/20 06:39:37;;;;;;;22.17;13.13;;;;;;;;;;5096365;28;20048;-71
2021/10/20 06:42:03;;;;;;;17.35;12.23;;;;;;;;;;5103401;28;20040;-72
2021/10/20 06:44:29;;;;;;;19.70;12.90;;;;;;;;;;5096292;28;20036;-72
2021/10/20 06:46:56;;;;;;;20.10;12.25;;;;;;;;;;5098070;28;20075;-72
2021/10/20 06:49:22;;;;;;;19.58;12.02;;;;;;;;;;5098931;28;20075;-72
2021/10/20 06:51:48;;;;;;;17.95;13.27;;;;;;;;;;5099173;28;20597;-72
2021/10/20 06:54:18;;;;;;;14.30;11.57;;;;;;;;;;5089089;28;20074;-72
2021/10/20 06:56:48;;;;;;;19.95;13.00;;;;;;;;;;5103852;28;20044;-72
2021/10/20 06:59:15;;;;;;;23.33;13.38;;;;;;;;;;5096052;28;20047;-72
2021/10/20 07:01:41;;;;;;;17.77;11.68;;;;;;;;;;5104017;28;20044;-73
2021/10/20 07:04:08;;;;;;;15.55;11.40;;;;;;;;;;5100369;28;20040;-73
2021/10/20 07:06:34;;;;;;;25.95;15.07;;;;;;;;;;5100656;28;20043;-72
2021/10/20 07:09:00;;;;;;;20.70;14.82;;;;;;;;;;5102351;28;20099;-72
2021/10/20 07:11:26;;;;;;;20.70;13.85;;;;;;;;;;5095967;28;20052;-72
2021/10/20 07:13:52;;;;;;;19.13;13.25;;;;;;;;;;5102317;28;20040;-73
2021/10/20 07:16:18;;;;;;;17.55;14.23;;;;;;;;;;5104238;28;20044;-73
2021/10/20 07:18:44;;;;;;;18.52;13.57;;;;;;;;;;5100040;28;20035;-73
2021/10/20 07:21:10;;;;;;;20.63;14.13;;;;;;;;;;5098504;28;20140;-72
2021/10/20 07:23:36;;;;;;;20.33;15.15;;;;;;;;;;5103322;28;20036;-72
2021/10/20 07:26:03;;;;;;;18.83;14.25;;;;;;;;;;5099139;28;20035;-73
2021/10/20 07:28:29;;;;;;;19.73;15.55;;;;;;;;;;5102102;28;20129;-73
2021/10/20 07:30:55;;;;;;;21.48;14.35;;;;;;;;;;5100532;28;20539;-73
2021/10/20 07:33:21;;;;;;;21.08;13.82;;;;;;;;;;5100404;28;20051;-73
2021/10/20 07:35:47;;;;;;;21.17;13.00;;;;;;;;;;5097159;28;20040;-74
2021/10/20 07:38:13;;;;;;;19.90;13.73;;;;;;;;;;5096840;28;20097;-74
2021/10/20 07:40:39;;;;;;;22.58;15.23;;;;;;;;;;5102902;28;20100;-73
2021/10/20 07:43:05;;;;;;;22.52;13.00;;;;;;;;;;5102269;28;20044;-74
2021/10/20 07:45:31;;;;;;;19.40;12.48;;;;;;;;;;5099334;28;20051;-75
2021/10/20 07:47:58;;;;;;;18.83;12.27;;;;;;;;;;5097624;28;20091;-72
2021/10/20 07:50:24;;;;;;;18.13;12.60;;;;;;;;;;5103247;28;20087;-72
2021/10/20 07:52:50;;;;;;;17.42;12.50;;;;;;;;;;5103376;28;20117;-74
2021/10/20 07:55:17;;;;;;;17.63;13.60;;;;;;;;;;5101057;28;20048;-74
2021/10/20 07:57:44;;;;;;;21.65;14.75;;;;;;;;;;5101191;28;20124;-73
2021/10/20 08:00:10;;;;;;;18.67;13.10;;;;;;;;;;5101974;28;20036;-74
2021/10/20 08:02:37;;;;;;;22.73;16.20;;;;;;;;;;5102176;28;20063;-74
2021/10/20 08:05:03;;;;;;;22.40;15.38;;;;;;;;;;5096688;28;20036;-75
2021/10/20 08:07:29;;;;;;;24.30;14.65;;;;;;;;;;5095981;28;20093;-73
2021/10/20 08:09:55;;;;;;;21.25;15.55;;;;;;;;;;5101629;28;20099;-72
2021/10/20 08:12:22;;;;;;;17.92;13.55;;;;;;;;;;5090604;28;20100;-73
2021/10/20 08:14:53;;;;;;;16.58;12.02;;;;;;;;;;5097365;28;20772;-71
2021/10/20 08:17:19;;;;;;;18.30;11.88;;;;;;;;;;5100555;28;20052;-67
2021/10/20 08:19:46;;;;;;;23.90;14.63;;;;;;;;;;5101937;28;20101;-77
2021/10/20 08:22:12;;;;;;;17.90;13.48;;;;;;;;;;5099799;28;20040;-76
2021/10/20 08:24:38;;;;;;;18.27;13.32;;;;;;;;;;5097220;28;20047;-77
2021/10/20 08:27:04;;;;;;;18.98;12.63;;;;;;;;;;5102269;28;20094;-76
2021/10/20 08:29:33;;;;;;;17.38;12.23;;;;;;;;;;5087214;28;20048;-67
2021/10/20 08:31:59;;;;;;;17.05;12.05;;;;;;;;;;5101191;28;20062;-73
2021/10/20 08:34:25;;;;;;;17.60;11.80;;;;;;;;;;5101010;28;20040;-72
2021/10/20 08:36:51;;;;;;;15.02;11.20;;;;;;;;;;5095360;28;20094;-72
2021/10/20 08:39:18;;;;;;;14.85;11.38;;;;;;;;;;5078418;28;20055;-72
2021/10/20 08:41:44;;;;;;;15.77;11.38;;;;;;;;;;5096872;28;20094;-72
2021/10/20 08:44:10;;;;;;;15.98;11.55;;;;;;;;;;5095521;28;20047;-72
2021/10/20 08:46:36;;;;;;;15.32;11.00;;;;;;;;;;5101212;28;20099;-72
2021/10/20 08:49:02;;;;;;;15.52;11.05;;;;;;;;;;5106399;28;20052;-72
2021/10/20 08:51:29;;;;;;;22.65;11.70;;;;;;;;;;5106163;28;20129;-72
2021/10/20 08:53:56;;;;;;;16.03;9.93;;;;;;;;;;5105566;28;20052;-72
2021/10/20 08:56:22;;;;;;;18.20;10.68;;;;;;;;;;5103735;28;20101;-71
2021/10/20 08:58:49;;;;;;;15.43;10.23;;;;;;;;;;5101301;28;20059;-72
2021/10/20 09:01:15;;;;;;;14.70;9.27;;;;;;;;;;5104784;28;20066;-72
2021/10/20 09:03:42;;;;;;;15.63;11.17;;;;;;;;;;5098709;28;20065;-72
2021/10/20 09:06:09;;;;;;;15.98;9.82;;;;;;;;;;5105274;28;20060;-72
2021/10/20 09:08:45;;;;;;;11.50;9.18;;;;;;;;;;5105844;28;20063;-73
2021/10/20 09:11:18;;;;;;;14.82;9.10;;;;;;;;;;5104784;28;20054;-72
2021/10/20 09:13:44;;;;;;;15.30;8.50;;;;;;;;;;5102071;28;20123;-71
2021/10/20 09:16:10;;;;;;;16.80;9.27;;;;;;;;;;5104053;28;20055;-76
2021/10/20 09:18:39;;;;;;;14.63;9.57;;;;;;;;;;5103335;28;20040;-76
2021/10/20 09:21:06;;;;;;;11.15;8.70;;;;;;;;;;5104676;28;20036;-68
2021/10/20 09:23:32;;;;;;;9.97;8.50;;;;;;;;;;5101940;28;20044;-61
2021/10/20 09:25:59;;;;;;;12.23;8.32;;;;;;;;;;5100016;28;20051;-72
2021/10/20 09:28:25;;;;;;;9.98;7.57;;;;;;;;;;5102010;28;20086;-66
2021/10/20 09:30:52;;;;;;;11.23;7.70;;;;;;;;;;5099722;28;20055;-67
2021/10/20 09:33:19;;;;;;;11.25;8.70;;;;;;;;;;5088741;28;20044;-67
2021/10/20 09:35:45;;;;;;;16.40;8.52;;;;;;;;;;5104110;28;20051;-66
2021/10/20 09:38:12;;;;;;;13.93;8.75;;;;;;;;;;5103005;28;20052;-67
2021/10/20 09:40:39;;;;;;;18.57;9.13;;;;;;;;;;5104120;28;20055;-69
2021/10/20 09:43:06;;;;;;;11.57;8.57;;;;;;;;;;5087678;28;20034;-70
2021/10/20 09:45:36;;;;;;;14.05;8.15;;;;;;;;;;5085922;28;20062;-67
2021/10/20 09:48:10;;;;;;;16.70;8.75;;;;;;;;;;5097404;28;20047;-72
2021/10/20 09:50:40;;;;;;;12.18;8.77;;;;;;;;;;5100295;28;20123;-71
2021/10/20 09:53:06;;;;;;;11.15;8.38;;;;;;;;;;5099854;28;20066;-68
2021/10/20 09:55:32;;;;;;;11.35;8.55;;;;;;;;;;5105437;28;20716;-71
2021/10/20 09:58:02;;;;;;;9.60;8.00;;;;;;;;;;5100933;28;20048;-69
2021/10/20 10:00:29;;;;;;;14.35;7.75;;;;;;;;;;5102368;28;20072;-66
2021/10/20 10:02:56;;;;;;;9.00;7.75;;;;;;;;;;5104696;28;20098;-65
2021/10/20 10:05:23;;;;;;;10.63;8.60;;;;;;;;;;5103409;28;20392;-64
2021/10/20 10:07:49;;;;;;;10.13;7.60;;;;;;;;;;5103556;28;20497;-68
2021/10/20 10:10:15;;;;;;;10.77;8.00;;;;;;;;;;5100231;28;20067;-68
2021/10/20 10:12:42;;;;;;;13.57;7.90;;;;;;;;;;5100031;28;20103;-65
2021/10/20 10:15:12;;;;;;;12.95;7.57;;;;;;;;;;5094777;28;20100;-65
2021/10/20 10:17:42;;;;;;;10.85;8.00;;;;;;;;;;5104917;28;20043;-69
2021/10/20 10:20:09;;;;;;;9.07;7.82;;;;;;;;;;5072510;28;20067;-66
2021/10/20 10:22:46;;;;;;;8.93;6.50;;;;;;;;;;5097490;28;20043;-74
2021/10/20 10:25:12;;;;;;;11.88;8.13;;;;;;;;;;5094604;28;20060;-74
2021/10/20 10:27:40;;;;;;;11.48;7.75;;;;;;;;;;5102251;28;20036;-64
2021/10/20 10:30:27;;;;;;;8.35;6.45;;;;;;;;;;5105545;28;20052;-64
2021/10/20 10:32:57;;;;;;;10.98;7.40;;;;;;;;;;5099322;28;20043;-64
2021/10/20 10:35:26;;;;;;;7.65;6.55;;;;;;;;;;5087569;28;20047;-70
2021/10/20 10:38:02;;;;;;;14.23;7.60;;;;;;;;;;5103798;28;20044;-64
2021/10/20 10:40:32;;;;;;;8.85;7.57;;;;;;;;;;5101699;28;20045;-64
2021/10/20 10:43:00;;;;;;;10.95;7.13;;;;;;;;;;5104289;28;20048;-64
2021/10/20 10:45:26;;;;;;;9.57;7.57;;;;;;;;;;5112616;28;20047;-66
2021/10/20 10:47:58;;;;;;;11.80;7.15;;;;;;;;;;5101814;28;20051;-67
2021/10/20 10:50:47;;;;;;;9.02;7.38;;;;;;;;;;5103088;28;20039;-66
2021/10/20 10:53:13;;;;;;;;;;;;;;;;;;5096560;28;20131;-67
2021/10/20 10:55:39;;;;;;;10.25;7.47;;;;;;;;;;5095971;28;19964;-67
2021/10/20 10:58:25;;;;;;;8.40;6.88;;;;;;;;;;5102060;28;20040;-65
2021/10/20 11:00:51;;;;;;;11.65;8.23;;;;;;;;;;5101432;28;20055;-66
2021/10/20 11:03:27;;;;;;;15.00;8.68;;;;;;;;;;5102013;28;20082;-65
2021/10/20 11:06:01;;;;;;;13.63;9.63;;;;;;;;;;5103088;28;20039;-70
2021/10/20 11:08:30;;;;;;;13.38;9.05;;;;;;;;;;5081978;28;20047;-68
2021/10/20 11:10:57;;;;;;;12.02;9.57;;;;;;;;;;5098271;28;20038;-67
2021/10/20 11:13:23;;;;;;;15.30;10.90;;;;;;;;;;5098381;28;20049;-71
2021/10/20 11:15:50;;;;;;;14.50;11.27;;;;;;;;;;5098987;28;20044;-63
2021/10/20 11:18:16;;;;;;;12.32;11.02;;;;;;;;;;5103291;28;20075;-62
2021/10/20 11:20:43;;;;;;;14.00;12.52;;;;;;;;;;5103679;28;20063;-73
2021/10/20 11:23:14;;;;;;;14.05;11.95;;;;;;;;;;5079330;28;20066;-72
2021/10/20 11:25:42;;;;;;;15.32;12.45;;;;;;;;;;5103243;28;20047;-76
2021/10/20 11:28:08;;;;;;;13.77;12.32;;;;;;;;;;5099857;28;20055;-65
2021/10/20 11:30:43;;;;;;;16.83;13.27;;;;;;;;;;5106505;27;20409;-65
2021/10/20 11:33:10;;;;;;;12.25;9.88;;;;;;;;;;5100898;28;20052;-65
2021/10/20 11:35:37;;;;;;;;;;;;;;;;;;5096888;28;20111;-68
2021/10/20 11:38:06;;;;;;;21.30;12.55;;;;;;;;;;5094601;28;19977;-64
2021/10/20 11:40:34;;;;;;;15.45;11.98;;;;;;;;;;5095227;28;20044;-65
2021/10/20 11:43:00;;;;;;;14.88;13.30;;;;;;;;;;5095745;28;20063;-63
2021/10/20 11:45:31;;;;;;;16.92;13.77;;;;;;;;;;5100848;28;20401;-71
2021/10/20 11:48:00;;;;;;;15.30;13.70;;;;;;;;;;5101942;28;20048;-73
2021/10/20 11:50:28;;;;;;;19.00;13.90;;;;;;;;;;5098677;28;20097;-67
2021/10/20 11:53:04;;;;;;;16.88;12.35;;;;;;;;;;5096815;28;20044;-71
2021/10/20 11:55:31;;;;;;;13.45;11.05;;;;;;;;;;5094067;28;20484;-71
2021/10/20 11:57:57;;;;;;;14.20;11.10;;;;;;;;;;5101340;28;20054;-61
2021/10/20 12:00:24;;;;;;;21.90;10.25;;;;;;;;;;5094749;28;20051;-69
2021/10/20 12:02:50;;;;;;;14.57;10.10;;;;;;;;;;5098835;28;20075;-69
2021/10/20 12:05:17;;;;;;;19.42;9.63;;;;;;;;;;5097543;28;20044;-69
2021/10/20 12:07:48;;;;;;;18.27;9.82;;;;;;;;;;5089716;28;20054;-75
2021/10/20 12:10:14;;;;;;;17.38;8.30;;;;;;;;;;5090441;28;20053;-71
2021/10/20 12:12:42;;;;;;;11.68;8.18;;;;;;;;;;5091706;28;20093;-71
2021/10/20 12:15:14;;;;;;;10.23;7.97;;;;;;;;;;5099013;28;20048;-72
2021/10/20 12:17:41;;;;;;;13.85;7.38;;;;;;;;;;5089438;28;20044;-71
2021/10/20 12:20:07;;;;;;;12.60;7.78;;;;;;;;;;5097443;28;20080;-71
2021/10/20 12:22:39;;;;;;;12.45;6.78;;;;;;;;;;5084852;28;20052;-71
2021/10/20 12:25:06;;;;;;;14.43;6.90;;;;;;;;;;5079428;28;20592;-74
2021/10/20 12:27:32;;;;;;;16.25;6.38;;;;;;;;;;5079737;28;20045;-74
2021/10/20 12:29:59;;;;;;;12.52;6.43;;;;;;;;;;5080073;28;20562;-75
2021/10/20 12:32:29;;;;;;;13.80;6.97;;;;;;;;;;5080721;28;20044;-70
2021/10/20 12:34:56;;;;;;;11.18;5.57;;;;;;;;;;5082595;28;20081;-69
2021/10/20 12:37:22;;;;;;;;;;;;;;;;;;5091718;28;20076;-70
2021/10/20 12:39:52;;;;;;;17.52;7.10;;;;;;;;;;5082550;28;19920;-70
2021/10/20 12:42:18;;;;;;;16.83;5.88;;;;;;;;;;5076590;28;20043;-70
2021/10/20 12:44:46;;;;;;;16.77;6.78;;;;;;;;;;5078466;28;20075;-76
2021/10/20 12:47:16;;;;;;;13.30;6.20;;;;;;;;;;5075138;28;20037;-77
2021/10/20 12:49:42;;;;;;;18.67;6.63;;;;;;;;;;5076302;28;20055;-65
2021/10/20 12:52:09;;;;;;;17.77;5.53;;;;;;;;;;5087673;28;20040;-67
2021/10/20 12:54:35;;;;;;;18.30;4.97;;;;;;;;;;5081165;28;20429;-65
2021/10/20 12:57:01;;;;;;;22.38;5.38;;;;;;;;;;5072181;28;20039;-65
2021/10/20 12:59:30;;;;;;;18.55;5.43;;;;;;;;;;5076458;28;20781;-79
2021/10/20 13:01:57;;;;;;;19.15;6.18;;;;;;;;;;5079337;28;20037;-74
2021/10/20 13:04:23;;;;;;;17.10;4.40;;;;;;;;;;5087042;28;20072;-70
2021/10/20 13:06:49;;;;;;;22.20;6.00;;;;;;;;;;5081490;28;20041;-70
2021/10/20 13:09:15;;;;;;;25.00;5.30;;;;;;;;;;5084400;28;20060;-69
2021/10/20 13:11:42;;;;;;;19.90;5.97;;;;;;;;;;5084621;28;20048;-67
2021/10/20 13:14:08;;;;;;;13.98;4.90;;;;;;;;;;5089431;28;20045;-69
2021/10/20 13:16:35;;;;;;;20.98;5.57;;;;;;;;;;5082200;28;20811;-69
2021/10/20 13:19:01;;;;;;;16.48;4.70;;;;;;;;;;5080098;28;20486;-75
2021/10/20 13:21:30;;;;;;;19.75;4.93;;;;;;;;;;5085401;28;20037;-73
2021/10/20 13:23:56;;;;;;;16.60;5.00;;;;;;;;;;5064148;28;20088;-73
2021/10/20 13:26:22;;;;;;;17.27;4.93;;;;;;;;;;5065704;28;20547;-63
2021/10/20 13:28:48;;;;;;;15.57;5.05;;;;;;;;;;5069855;28;20447;-64
2021/10/20 13:31:14;;;;;;;15.05;4.07;;;;;;;;;;5066608;28;20143;-63
2021/10/20 13:33:40;;;;;;;12.93;5.28;;;;;;;;;;5082120;28;20134;-66
2021/10/20 13:36:11;;;;;;;20.17;5.95;;;;;;;;;;5075008;28;20045;-70
2021/10/20 13:38:37;;;;;;;20.83;6.00;;;;;;;;;;5078124;28;20064;-71
2021/10/20 13:41:03;;;;;;;16.40;4.43;;;;;;;;;;5078812;28;20445;-69
2021/10/20 13:43:29;;;;;;;14.82;4.45;;;;;;;;;;5084576;28;20093;-67
2021/10/20 13:45:55;;;;;;;15.52;5.22;;;;;;;;;;5080497;28;20083;-68
2021/10/20 13:48:21;;;;;;;20.60;5.18;;;;;;;;;;5076999;28;20041;-66
2021/10/20 13:50:48;;;;;;;16.00;5.38;;;;;;;;;;5083560;28;20044;-75
2021/10/20 13:53:14;;;;;;;18.90;5.55;;;;;;;;;;5072048;28;20098;-67
2021/10/20 13:55:40;;;;;;;14.98;5.22;;;;;;;;;;5076909;28;20044;-66
2021/10/20 13:58:06;;;;;;;13.68;4.75;;;;;;;;;;5087393;28;20048;-71
2021/10/20 14:00:32;;;;;;;16.67;5.22;;;;;;;;;;5080404;28;20057;-68
2021/10/20 14:02:58;;;;;;;18.58;5.32;;;;;;;;;;5081115;28;20587;-73
2021/10/20 14:05:24;;;;;;;21.05;5.10;;;;;;;;;;5081517;28;20048;-71
2021/10/20 14:07:50;;;;;;;17.77;4.53;;;;;;;;;;5083935;28;20091;-71
2021/10/20 14:10:16;;;;;;;16.42;4.38;;;;;;;;;;5089003;28;20087;-66
2021/10/20 14:12:42;;;;;;;19.23;4.63;;;;;;;;;;5080110;28;20028;-65
2021/10/20 14:15:09;;;;;;;13.38;4.70;;;;;;;;;;5083447;28;20055;-71
2021/10/20 14:17:36;;;;;;;18.53;4.93;;;;;;;;;;5084612;28;20097;-73
2021/10/20 14:20:03;;;;;;;14.02;4.53;;;;;;;;;;5083245;28;20040;-65
2021/10/20 14:22:30;;;;;;;14.35;3.78;;;;;;;;;;5089788;28;20067;-65